aviador You're here:

ETAD Decoded Metar

SPANGDAHLEM in GERMANY
Report Time2017-10-21 15:45:00
UTC Time2017-10-21 15:51:53
Flight Rules vfr VFR
Wind210° at 10 kt
W.Decomp.*RWY 23: 9.3 kt HW 3.6 kt LCW
W.Rank210° ranks 5
Current wind is above 210° avg. (9.0)
Visibility9999 m
Phenomena:N/A
Clouds:Few 023 Hf
Few 041 Hf
Scattered 085 Hf
Expected CloudBase > 1,200 ft AGL from Temp-Dew spread
CeilingNone
Temp12°C (ISA -1)
Dew Point09°C (82% RH)
AAT8.2°C
QNH1013 hPa
Density Alt1,283 ft
Elevation1,198 ft
Report Wrong Elevation
Raw Report
ETAD 211545Z AUTO 21010KT 9999 FEW023 FEW041 SCT085 12/09 A2992
RMK AO2 RAE33RAB36E45 SLP124 TSNO $=

Extra information for ETAD:More info

Metar Taf Metar & Taf Last 4 Metars F.Rules Stats Wind Profile Meteogram Temp Stats Airport Information Weather charts Add Link Nearby VenuesMetar ALERT Operation Metar Decoded Social comments